Widukind — CQIK7 — position and weather

sailwx.info

Track history (hours):
 
Tides and Currents Weather Stations Pressure Air Temp Water Temp Dewpoint Dewpoint Depression Visibility Wind Speed Wind Dir Waves Ship Positions

Widukind

Last reported at 2018-Jan-10 13:24 UTC. Time now 2018-Jan-18 07:56 UTC.
Position S 39°08' E 147°00'.

Length 221 m; draft 8.6 m.

Type: Ship. MMSI: 255805987.

Date/timePositionNaut miles runAvg speedWind from/ knotsBaromVisibWave heightAir tempDewpointWater temp
2018-Jan-10 13:24S 39°08' E 147°00'511.5
2018-Jan-10 12:59S 39°10' E 146°55'612.1
2018-Jan-10 12:30S 39°12' E 146°48'812.7
2018-Jan-10 11:54S 39°15' E 146°38'812.1
2018-Jan-10 11:17S 39°16' E 146°29'312.2
2018-Jan-10 11:00S 39°16' E 146°24'711.9
2018-Jan-10 10:25S 39°16' E 146°15'411.0
2018-Jan-10 10:00S 39°14' E 146°10'103 4.3
2018-Jan-09 09:43S 37°49' E 144°55'2 4.8
2018-Jan-09 09:20S 37°51' E 144°54'6 9.1
2018-Jan-09 08:40S 37°57' E 144°56'1 8.3
2018-Jan-09 08:30S 37°58' E 144°55'  
2018-Jan-06 18:21S 33°58' E 151°13'4 7.0
2018-Jan-06 17:42S 34°01' E 151°17'211.5
2018-Jan-06 17:30S 34°01' E 151°19'611.4
2018-Jan-06 17:00S 33°56' E 151°23'713.6
2018-Jan-06 16:30S 33°51' E 151°29'713.5
2018-Jan-06 16:00S 33°46' E 151°34'713.5
2018-Jan-06 15:30S 33°40' E 151°39'713.7
2018-Jan-06 15:00S 33°35' E 151°43'713.8
2018-Jan-06 14:30S 33°29' E 151°49'713.7
2018-Jan-06 14:00S 33°24' E 151°54'713.6
2018-Jan-06 13:30S 33°19' E 151°59'713.4
2018-Jan-06 13:00S 33°13' E 152°04'713.7
2018-Jan-06 12:30S 33°08' E 152°09'713.5
2018-Jan-06 12:00S 33°03' E 152°13'713.1
2018-Jan-06 11:30S 32°57' E 152°18'713.1
2018-Jan-06 11:00S 32°52' E 152°23'713.3
2018-Jan-06 10:30S 32°47' E 152°28'714.3
2018-Jan-06 10:00S 32°41' E 152°33'714.7
2018-Jan-06 09:30S 32°36' E 152°39'715.0
2018-Jan-06 09:00S 32°30' E 152°44'815.5
2018-Jan-06 08:30S 32°22' E 152°47'815.5
2018-Jan-06 08:00S 32°15' E 152°51'815.4
2018-Jan-06 07:30S 32°08' E 152°54'815.2
2018-Jan-06 07:00S 32°01' E 152°57'714.9
2018-Jan-06 06:30S 31°54' E 152°60'714.9
2018-Jan-06 06:00S 31°47' E 153°03'19314.8
2018-Jan-05 16:59S 28°38' E 153°52'815.1
2018-Jan-05 16:25S 28°30' E 153°51'615.3
2018-Jan-05 16:00S 28°24' E 153°50'815.4
2018-Jan-05 15:30S 28°16' E 153°49'714.9
2018-Jan-05 15:00S 28°09' E 153°48'815.1
2018-Jan-05 14:30S 28°01' E 153°47'815.2
2018-Jan-05 14:00S 27°53' E 153°46'815.2
2018-Jan-05 13:30S 27°46' E 153°45'6211.1
2018-Jan-05 07:56S 26°53' E 153°10'1019.5
2018-Jan-05 07:24S 27°02' E 153°15'818.3
2018-Jan-05 06:57S 27°08' E 153°21'10 8.3
2018-Jan-05 05:46S 27°17' E 153°16'0 0.1
2018-Jan-05 05:18S 27°17' E 153°16'2 4.4
2018-Jan-05 04:51S 27°17' E 153°14'410.2
2018-Jan-05 04:26S 27°21' E 153°11'2 0.1
2018-Jan-04 11:19S 27°22' E 153°10'0 0.6
2018-Jan-04 11:00S 27°22' E 153°10'4 6.7
2018-Jan-04 10:28S 27°19' E 153°12'712.7
2018-Jan-04 09:53S 27°15' E 153°19'714.2
2018-Jan-04 09:22S 27°07' E 153°21'515.0
2018-Jan-04 09:00S 27°03' E 153°17'74317.6
2018-Jan-02 14:47S 22°28' E 165°58'412.3
2018-Jan-02 14:30S 22°27' E 166°01'612.2
2018-Jan-02 14:00S 22°25' E 166°08'612.2
2018-Jan-02 13:30S 22°22' E 166°14'612.0
2018-Jan-02 13:00S 22°19' E 166°18'611.8
2018-Jan-02 12:30S 22°15' E 166°23'3 5.8
2018-Jan-02 12:01S 22°16' E 166°26'0 0.0
2018-Jan-02 11:30S 22°16' E 166°26'0 0.0
2018-Jan-02 11:00S 22°16' E 166°26'0 0.0
2018-Jan-02 10:30S 22°16' E 166°26'0 0.0
2018-Jan-02 10:00S 22°16' E 166°26'0 0.0
2018-Jan-02 09:29S 22°16' E 166°26'0 0.0
2018-Jan-02 08:29S 22°16' E 166°26'0 0.0
2018-Jan-02 07:59S 22°16' E 166°26'0 0.0
2018-Jan-02 07:29S 22°16' E 166°26'0 0.0
2018-Jan-02 06:58S 22°16' E 166°26'0 0.0
2018-Jan-02 06:28S 22°16' E 166°26'0 0.0
2018-Jan-02 05:55S 22°16' E 166°26'0 0.0
2018-Jan-02 05:28S 22°16' E 166°26'0 0.0
2018-Jan-02 04:30S 22°16' E 166°26'0 0.0
2018-Jan-02 03:54S 22°16' E 166°26'0 0.0
2018-Jan-02 03:30S 22°16' E 166°26'0 0.0
2018-Jan-02 03:00S 22°16' E 166°26'0 0.0
2018-Jan-02 02:29S 22°16' E 166°26'0 0.0
2018-Jan-02 01:56S 22°16' E 166°26'0 0.0
2018-Jan-02 01:29S 22°16' E 166°26'0 0.0
2018-Jan-02 00:59S 22°16' E 166°26'0 0.0
2018-Jan-02 00:29S 22°16' E 166°26'0 0.0
2018-Jan-01 23:58S 22°16' E 166°26'0 0.0
2018-Jan-01 23:28S 22°16' E 166°26'0 0.0
2018-Jan-01 22:58S 22°16' E 166°26'0 0.0
2018-Jan-01 22:25S 22°16' E 166°26'0 0.0
2018-Jan-01 22:00S 22°16' E 166°26'0 0.0
2018-Jan-01 21:30S 22°16' E 166°26'0 0.0
2018-Jan-01 20:57S 22°16' E 166°26'0 0.0
2018-Jan-01 20:30S 22°16' E 166°26'0 0.1
2018-Jan-01 20:00S 22°16' E 166°26'3 5.8
2018-Jan-01 19:30S 22°16' E 166°23'918.1
2018-Jan-01 19:00S 22°21' E 166°31'  
Track history (hours):
 
Tides and Currents Weather Stations Pressure Air Temp Water Temp Dewpoint Dewpoint Depression Visibility Wind Speed Wind Dir Waves Ship Positions

Widukind

Last reported at 2018-Jan-10 13:24 UTC. Time now 2018-Jan-18 07:56 UTC.
Position S 39°08' E 147°00'.

Length 221 m; draft 8.6 m.

Type: Ship. MMSI: 255805987.

Date/timePositionNaut miles runAvg speedWind from/ knotsBaromVisibWave heightAir tempDewpointWater temp
2018-Jan-10 13:24S 39°08' E 147°00'511.5
2018-Jan-10 12:59S 39°10' E 146°55'612.1
2018-Jan-10 12:30S 39°12' E 146°48'812.7
2018-Jan-10 11:54S 39°15' E 146°38'812.1
2018-Jan-10 11:17S 39°16' E 146°29'312.2
2018-Jan-10 11:00S 39°16' E 146°24'711.9
2018-Jan-10 10:25S 39°16' E 146°15'411.0
2018-Jan-10 10:00S 39°14' E 146°10'103 4.3
2018-Jan-09 09:43S 37°49' E 144°55'2 4.8
2018-Jan-09 09:20S 37°51' E 144°54'6 9.1
2018-Jan-09 08:40S 37°57' E 144°56'1 8.3
2018-Jan-09 08:30S 37°58' E 144°55'  
2018-Jan-06 18:21S 33°58' E 151°13'4 7.0
2018-Jan-06 17:42S 34°01' E 151°17'211.5
2018-Jan-06 17:30S 34°01' E 151°19'611.4
2018-Jan-06 17:00S 33°56' E 151°23'713.6
2018-Jan-06 16:30S 33°51' E 151°29'713.5
2018-Jan-06 16:00S 33°46' E 151°34'713.5
2018-Jan-06 15:30S 33°40' E 151°39'713.7
2018-Jan-06 15:00S 33°35' E 151°43'713.8
2018-Jan-06 14:30S 33°29' E 151°49'713.7
2018-Jan-06 14:00S 33°24' E 151°54'713.6
2018-Jan-06 13:30S 33°19' E 151°59'713.4
2018-Jan-06 13:00S 33°13' E 152°04'713.7
2018-Jan-06 12:30S 33°08' E 152°09'713.5
2018-Jan-06 12:00S 33°03' E 152°13'713.1
2018-Jan-06 11:30S 32°57' E 152°18'713.1
2018-Jan-06 11:00S 32°52' E 152°23'713.3
2018-Jan-06 10:30S 32°47' E 152°28'714.3
2018-Jan-06 10:00S 32°41' E 152°33'714.7
2018-Jan-06 09:30S 32°36' E 152°39'715.0
2018-Jan-06 09:00S 32°30' E 152°44'815.5
2018-Jan-06 08:30S 32°22' E 152°47'815.5
2018-Jan-06 08:00S 32°15' E 152°51'815.4
2018-Jan-06 07:30S 32°08' E 152°54'815.2
2018-Jan-06 07:00S 32°01' E 152°57'714.9
2018-Jan-06 06:30S 31°54' E 152°60'714.9
2018-Jan-06 06:00S 31°47' E 153°03'19314.8
2018-Jan-05 16:59S 28°38' E 153°52'815.1
2018-Jan-05 16:25S 28°30' E 153°51'615.3
2018-Jan-05 16:00S 28°24' E 153°50'815.4
2018-Jan-05 15:30S 28°16' E 153°49'714.9
2018-Jan-05 15:00S 28°09' E 153°48'815.1
2018-Jan-05 14:30S 28°01' E 153°47'815.2
2018-Jan-05 14:00S 27°53' E 153°46'815.2
2018-Jan-05 13:30S 27°46' E 153°45'6211.1
2018-Jan-05 07:56S 26°53' E 153°10'1019.5
2018-Jan-05 07:24S 27°02' E 153°15'818.3
2018-Jan-05 06:57S 27°08' E 153°21'10 8.3
2018-Jan-05 05:46S 27°17' E 153°16'0 0.1
2018-Jan-05 05:18S 27°17' E 153°16'2 4.4
2018-Jan-05 04:51S 27°17' E 153°14'410.2
2018-Jan-05 04:26S 27°21' E 153°11'2 0.1
2018-Jan-04 11:19S 27°22' E 153°10'0 0.6
2018-Jan-04 11:00S 27°22' E 153°10'4 6.7
2018-Jan-04 10:28S 27°19' E 153°12'712.7
2018-Jan-04 09:53S 27°15' E 153°19'714.2
2018-Jan-04 09:22S 27°07' E 153°21'515.0
2018-Jan-04 09:00S 27°03' E 153°17'74317.6
2018-Jan-02 14:47S 22°28' E 165°58'412.3
2018-Jan-02 14:30S 22°27' E 166°01'612.2
2018-Jan-02 14:00S 22°25' E 166°08'612.2
2018-Jan-02 13:30S 22°22' E 166°14'612.0
2018-Jan-02 13:00S 22°19' E 166°18'611.8
2018-Jan-02 12:30S 22°15' E 166°23'3 5.8
2018-Jan-02 12:01S 22°16' E 166°26'0 0.0
2018-Jan-02 11:30S 22°16' E 166°26'0 0.0
2018-Jan-02 11:00S 22°16' E 166°26'0 0.0
2018-Jan-02 10:30S 22°16' E 166°26'0 0.0
2018-Jan-02 10:00S 22°16' E 166°26'0 0.0
2018-Jan-02 09:29S 22°16' E 166°26'0 0.0
2018-Jan-02 08:29S 22°16' E 166°26'0 0.0
2018-Jan-02 07:59S 22°16' E 166°26'0 0.0
2018-Jan-02 07:29S 22°16' E 166°26'0 0.0
2018-Jan-02 06:58S 22°16' E 166°26'0 0.0
2018-Jan-02 06:28S 22°16' E 166°26'0 0.0
2018-Jan-02 05:55S 22°16' E 166°26'0 0.0
2018-Jan-02 05:28S 22°16' E 166°26'0 0.0
2018-Jan-02 04:30S 22°16' E 166°26'0 0.0
2018-Jan-02 03:54S 22°16' E 166°26'0 0.0
2018-Jan-02 03:30S 22°16' E 166°26'0 0.0
2018-Jan-02 03:00S 22°16' E 166°26'0 0.0
2018-Jan-02 02:29S 22°16' E 166°26'0 0.0
2018-Jan-02 01:56S 22°16' E 166°26'0 0.0
2018-Jan-02 01:29S 22°16' E 166°26'0 0.0
2018-Jan-02 00:59S 22°16' E 166°26'0 0.0
2018-Jan-02 00:29S 22°16' E 166°26'0 0.0
2018-Jan-01 23:58S 22°16' E 166°26'0 0.0
2018-Jan-01 23:28S 22°16' E 166°26'0 0.0
2018-Jan-01 22:58S 22°16' E 166°26'0 0.0
2018-Jan-01 22:25S 22°16' E 166°26'0 0.0
2018-Jan-01 22:00S 22°16' E 166°26'0 0.0
2018-Jan-01 21:30S 22°16' E 166°26'0 0.0
2018-Jan-01 20:57S 22°16' E 166°26'0 0.0
2018-Jan-01 20:30S 22°16' E 166°26'0 0.1
2018-Jan-01 20:00S 22°16' E 166°26'3 5.8
2018-Jan-01 19:30S 22°16' E 166°23'918.1
2018-Jan-01 19:00S 22°21' E 166°31'  

Dump ship's entire track history